sensor_id;sensor_type;location;lat;lon;timestamp;temperature;humidity
1221;DHT22;600;48.044;7.878;2022-12-10T08:03:50;4.90;99.90
1221;DHT22;600;48.044;7.878;2022-12-10T08:06:18;4.90;99.90
1221;DHT22;600;48.044;7.878;2022-12-10T08:08:46;4.90;99.90
1221;DHT22;600;48.044;7.878;2022-12-10T08:11:15;4.90;99.90
1221;DHT22;600;48.044;7.878;2022-12-10T08:13:42;4.90;99.90
1221;DHT22;600;48.044;7.878;2022-12-10T08:16:11;4.90;99.90
1221;DHT22;600;48.044;7.878;2022-12-10T08:18:39;4.90;99.90
1221;DHT22;600;48.044;7.878;2022-12-10T08:21:09;4.90;99.90
1221;DHT22;600;48.044;7.878;2022-12-10T08:23:36;5.00;99.90
1221;DHT22;600;48.044;7.878;2022-12-10T08:26:04;5.00;99.90
1221;DHT22;600;48.044;7.878;2022-12-10T08:28:31;5.00;99.90
1221;DHT22;600;48.044;7.878;2022-12-10T08:30:58;5.00;99.90
1221;DHT22;600;48.044;7.878;2022-12-10T08:33:25;5.10;99.90
1221;DHT22;600;48.044;7.878;2022-12-10T08:35:51;5.10;99.90
1221;DHT22;600;48.044;7.878;2022-12-10T08:38:20;5.10;99.90
1221;DHT22;600;48.044;7.878;2022-12-10T08:40:46;5.10;99.90
1221;DHT22;600;48.044;7.878;2022-12-10T08:43:13;5.10;99.90
1221;DHT22;600;48.044;7.878;2022-12-10T08:45:40;5.20;99.90
1221;DHT22;600;48.044;7.878;2022-12-10T08:48:07;5.20;99.90
1221;DHT22;600;48.044;7.878;2022-12-10T08:50:34;5.20;99.90
1221;DHT22;600;48.044;7.878;2022-12-10T08:53:02;5.20;99.90
1221;DHT22;600;48.044;7.878;2022-12-10T08:55:30;5.20;99.90
1221;DHT22;600;48.044;7.878;2022-12-10T08:57:57;5.30;99.90
1221;DHT22;600;48.044;7.878;2022-12-10T09:00:25;5.30;99.90
1221;DHT22;600;48.044;7.878;2022-12-10T09:02:52;5.30;99.90
1221;DHT22;600;48.044;7.878;2022-12-10T09:05:18;5.30;99.90
1221;DHT22;600;48.044;7.878;2022-12-10T09:07:45;5.30;99.90
1221;DHT22;600;48.044;7.878;2022-12-10T09:10:12;5.30;99.90
1221;DHT22;600;48.044;7.878;2022-12-10T09:12:40;5.30;99.90
1221;DHT22;600;48.044;7.878;2022-12-10T09:15:08;5.30;99.90
1221;DHT22;600;48.044;7.878;2022-12-10T09:17:38;5.30;99.90
1221;DHT22;600;48.044;7.878;2022-12-10T09:20:05;5.30;99.90
1221;DHT22;600;48.044;7.878;2022-12-10T09:22:33;5.20;99.90
1221;DHT22;600;48.044;7.878;2022-12-10T09:25:02;5.20;99.90
1221;DHT22;600;48.044;7.878;2022-12-10T09:27:30;5.20;99.90
1221;DHT22;600;48.044;7.878;2022-12-10T09:29:58;5.20;99.90
1221;DHT22;600;48.044;7.878;2022-12-10T09:32:25;5.20;99.90
1221;DHT22;600;48.044;7.878;2022-12-10T09:34:52;5.20;99.90
1221;DHT22;600;48.044;7.878;2022-12-10T09:37:19;5.30;99.90
1221;DHT22;600;48.044;7.878;2022-12-10T09:39:46;5.20;99.90
1221;DHT22;600;48.044;7.878;2022-12-10T09:42:33;5.20;99.90
1221;DHT22;600;48.044;7.878;2022-12-10T09:45:09;5.30;99.90
1221;DHT22;600;48.044;7.878;2022-12-10T09:47:44;5.30;99.90
1221;DHT22;600;48.044;7.878;2022-12-10T09:50:18;5.30;99.90
1221;DHT22;600;48.044;7.878;2022-12-10T09:52:46;5.30;99.90
1221;DHT22;600;48.044;7.878;2022-12-10T09:55:16;5.30;99.90
1221;DHT22;600;48.044;7.878;2022-12-10T09:57:46;5.20;99.90
1221;DHT22;600;48.044;7.878;2022-12-10T10:00:25;5.20;99.90
1221;DHT22;600;48.044;7.878;2022-12-10T10:02:55;5.20;99.90
1221;DHT22;600;48.044;7.878;2022-12-10T10:05:24;5.30;99.90
1221;DHT22;600;48.044;7.878;2022-12-10T10:07:54;5.30;99.90
1221;DHT22;600;48.044;7.878;2022-12-10T10:10:26;5.30;99.90
1221;DHT22;600;48.044;7.878;2022-12-10T10:13:00;5.20;99.90
1221;DHT22;600;48.044;7.878;2022-12-10T10:15:33;5.20;99.90
1221;DHT22;600;48.044;7.878;2022-12-10T10:18:03;5.20;99.90
1221;DHT22;600;48.044;7.878;2022-12-10T10:20:32;5.30;99.90
1221;DHT22;600;48.044;7.878;2022-12-10T10:22:59;5.30;99.90
1221;DHT22;600;48.044;7.878;2022-12-10T10:25:27;5.30;99.90
1221;DHT22;600;48.044;7.878;2022-12-10T10:27:54;5.30;99.90
1221;DHT22;600;48.044;7.878;2022-12-10T10:30:22;5.40;99.90
1221;DHT22;600;48.044;7.878;2022-12-10T10:32:53;5.30;99.90
1221;DHT22;600;48.044;7.878;2022-12-10T10:35:26;5.20;99.90
1221;DHT22;600;48.044;7.878;2022-12-10T10:37:58;5.20;99.90
1221;DHT22;600;48.044;7.878;2022-12-10T10:40:28;5.20;99.90
1221;DHT22;600;48.044;7.878;2022-12-10T10:42:57;5.20;99.90
1221;DHT22;600;48.044;7.878;2022-12-10T10:45:38;5.30;99.90
1221;DHT22;600;48.044;7.878;2022-12-10T10:48:10;5.30;99.90
1221;DHT22;600;48.044;7.878;2022-12-10T10:50:39;5.30;99.90
1221;DHT22;600;48.044;7.878;2022-12-10T10:53:28;5.30;99.90
1221;DHT22;600;48.044;7.878;2022-12-10T10:55:59;5.20;99.90
1221;DHT22;600;48.044;7.878;2022-12-10T10:58:27;5.20;99.90
1221;DHT22;600;48.044;7.878;2022-12-10T11:00:56;5.20;99.90
1221;DHT22;600;48.044;7.878;2022-12-10T11:03:25;5.20;99.90
1221;DHT22;600;48.044;7.878;2022-12-10T11:05:54;5.20;99.90
1221;DHT22;600;48.044;7.878;2022-12-10T11:08:25;5.20;99.90
1221;DHT22;600;48.044;7.878;2022-12-10T11:10:57;5.20;99.90
1221;DHT22;600;48.044;7.878;2022-12-10T11:13:29;5.20;99.90
1221;DHT22;600;48.044;7.878;2022-12-10T11:15:58;5.20;99.90
1221;DHT22;600;48.044;7.878;2022-12-10T11:18:31;5.20;99.90
1221;DHT22;600;48.044;7.878;2022-12-10T11:21:02;5.20;99.90
1221;DHT22;600;48.044;7.878;2022-12-10T11:23:30;5.00;99.90
1221;DHT22;600;48.044;7.878;2022-12-10T11:29:46;4.40;99.90
1221;DHT22;600;48.044;7.878;2022-12-10T11:32:51;4.60;99.90
1221;DHT22;600;48.044;7.878;2022-12-10T11:35:30;4.80;99.90
1221;DHT22;600;48.044;7.878;2022-12-10T11:38:05;4.90;99.90
1221;DHT22;600;48.044;7.878;2022-12-10T11:40:39;5.00;99.90
1221;DHT22;600;48.044;7.878;2022-12-10T11:43:27;5.10;99.90
1221;DHT22;600;48.044;7.878;2022-12-10T11:46:07;5.10;99.90
1221;DHT22;600;48.044;7.878;2022-12-10T11:48:53;5.10;99.90
1221;DHT22;600;48.044;7.878;2022-12-10T11:51:29;5.20;99.90
1221;DHT22;600;48.044;7.878;2022-12-10T11:54:10;5.20;99.90
1221;DHT22;600;48.044;7.878;2022-12-10T11:56:44;5.20;99.90
1221;DHT22;600;48.044;7.878;2022-12-10T11:59:17;5.20;99.90
1221;DHT22;600;48.044;7.878;2022-12-10T12:02:03;5.20;99.90
1221;DHT22;600;48.044;7.878;2022-12-10T12:04:52;5.30;99.90
1221;DHT22;600;48.044;7.878;2022-12-10T12:07:39;5.20;99.90
1221;DHT22;600;48.044;7.878;2022-12-10T12:10:26;5.20;99.90
1221;DHT22;600;48.044;7.878;2022-12-10T12:13:00;5.20;99.90
1221;DHT22;600;48.044;7.878;2022-12-10T12:15:29;5.20;99.90
1221;DHT22;600;48.044;7.878;2022-12-10T12:18:02;5.20;99.90
1221;DHT22;600;48.044;7.878;2022-12-10T12:20:32;5.10;99.90
1221;DHT22;600;48.044;7.878;2022-12-10T12:23:05;5.00;99.90
1221;DHT22;600;48.044;7.878;2022-12-10T12:25:40;5.00;99.90
1221;DHT22;600;48.044;7.878;2022-12-10T12:28:13;5.00;99.90
1221;DHT22;600;48.044;7.878;2022-12-10T12:30:41;5.00;99.90
1221;DHT22;600;48.044;7.878;2022-12-10T12:33:16;5.00;99.90
1221;DHT22;600;48.044;7.878;2022-12-10T12:35:47;5.10;99.90
1221;DHT22;600;48.044;7.878;2022-12-10T12:38:27;5.10;99.90
1221;DHT22;600;48.044;7.878;2022-12-10T12:40:57;5.20;99.90
1221;DHT22;600;48.044;7.878;2022-12-10T12:43:34;5.20;99.90
1221;DHT22;600;48.044;7.878;2022-12-10T12:46:10;5.20;99.90
1221;DHT22;600;48.044;7.878;2022-12-10T12:48:44;5.20;99.90
1221;DHT22;600;48.044;7.878;2022-12-10T12:51:16;5.20;99.90
1221;DHT22;600;48.044;7.878;2022-12-10T12:53:45;5.20;99.90
1221;DHT22;600;48.044;7.878;2022-12-10T12:56:21;5.20;99.90
1221;DHT22;600;48.044;7.878;2022-12-10T12:59:01;5.10;99.90
1221;DHT22;600;48.044;7.878;2022-12-10T13:01:32;5.10;99.90
1221;DHT22;600;48.044;7.878;2022-12-10T13:04:02;5.20;99.90
1221;DHT22;600;48.044;7.878;2022-12-10T13:06:31;5.10;99.90
1221;DHT22;600;48.044;7.878;2022-12-10T13:09:18;5.20;99.90
1221;DHT22;600;48.044;7.878;2022-12-10T13:12:18;5.20;99.90
1221;DHT22;600;48.044;7.878;2022-12-10T13:15:01;5.20;99.90
1221;DHT22;600;48.044;7.878;2022-12-10T13:17:32;5.10;99.90
1221;DHT22;600;48.044;7.878;2022-12-10T13:20:30;5.10;99.90
1221;DHT22;600;48.044;7.878;2022-12-10T13:22:58;5.10;99.90
1221;DHT22;600;48.044;7.878;2022-12-10T13:25:56;5.10;99.90
1221;DHT22;600;48.044;7.878;2022-12-10T13:28:29;5.10;99.90
1221;DHT22;600;48.044;7.878;2022-12-10T13:31:19;5.20;99.90
1221;DHT22;600;48.044;7.878;2022-12-10T13:33:50;5.20;99.90
1221;DHT22;600;48.044;7.878;2022-12-10T13:36:21;5.10;99.90
1221;DHT22;600;48.044;7.878;2022-12-10T13:39:10;5.10;99.90
1221;DHT22;600;48.044;7.878;2022-12-10T13:41:42;5.20;99.90
1221;DHT22;600;48.044;7.878;2022-12-10T13:44:47;5.20;99.90
1221;DHT22;600;48.044;7.878;2022-12-10T13:47:26;5.20;99.90
1221;DHT22;600;48.044;7.878;2022-12-10T13:49:55;5.20;99.90
1221;DHT22;600;48.044;7.878;2022-12-10T13:52:25;5.20;99.90
1221;DHT22;600;48.044;7.878;2022-12-10T13:55:20;5.20;99.90
1221;DHT22;600;48.044;7.878;2022-12-10T13:58:26;5.20;99.90
1221;DHT22;600;48.044;7.878;2022-12-10T14:00:59;5.20;99.90
1221;DHT22;600;48.044;7.878;2022-12-10T14:04:03;5.20;99.90
1221;DHT22;600;48.044;7.878;2022-12-10T14:06:33;5.20;99.90
1221;DHT22;600;48.044;7.878;2022-12-10T14:09:04;5.10;99.90
1221;DHT22;600;48.044;7.878;2022-12-10T14:11:34;5.10;99.90
1221;DHT22;600;48.044;7.878;2022-12-10T14:14:06;5.10;99.90
1221;DHT22;600;48.044;7.878;2022-12-10T14:16:38;5.10;99.90
1221;DHT22;600;48.044;7.878;2022-12-10T14:19:10;5.10;99.90
1221;DHT22;600;48.044;7.878;2022-12-10T14:21:40;5.10;99.90
1221;DHT22;600;48.044;7.878;2022-12-10T14:24:26;5.20;99.90
1221;DHT22;600;48.044;7.878;2022-12-10T14:26:58;5.20;99.90
1221;DHT22;600;48.044;7.878;2022-12-10T14:29:26;5.20;99.90
1221;DHT22;600;48.044;7.878;2022-12-10T14:31:53;5.20;99.90
1221;DHT22;600;48.044;7.878;2022-12-10T14:34:24;5.20;99.90
1221;DHT22;600;48.044;7.878;2022-12-10T14:36:53;5.10;99.90
1221;DHT22;600;48.044;7.878;2022-12-10T14:39:24;5.10;99.90
1221;DHT22;600;48.044;7.878;2022-12-10T14:41:53;5.10;99.90
1221;DHT22;600;48.044;7.878;2022-12-10T14:44:21;5.10;99.90
1221;DHT22;600;48.044;7.878;2022-12-10T14:46:50;5.10;99.90
1221;DHT22;600;48.044;7.878;2022-12-10T14:49:19;5.00;99.90
1221;DHT22;600;48.044;7.878;2022-12-10T14:51:46;5.00;99.90
1221;DHT22;600;48.044;7.878;2022-12-10T14:54:28;5.00;99.90
1221;DHT22;600;48.044;7.878;2022-12-10T14:56:58;5.00;99.90
1221;DHT22;600;48.044;7.878;2022-12-10T14:59:29;4.90;99.90
1221;DHT22;600;48.044;7.878;2022-12-10T15:02:01;5.00;99.90
1221;DHT22;600;48.044;7.878;2022-12-10T15:04:40;4.90;99.90
1221;DHT22;600;48.044;7.878;2022-12-10T15:07:13;4.90;99.90
1221;DHT22;600;48.044;7.878;2022-12-10T15:09:40;4.90;99.90
1221;DHT22;600;48.044;7.878;2022-12-10T15:12:20;4.90;99.90
1221;DHT22;600;48.044;7.878;2022-12-10T15:14:50;4.80;99.90
1221;DHT22;600;48.044;7.878;2022-12-10T15:17:35;4.90;99.90
1221;DHT22;600;48.044;7.878;2022-12-10T15:20:03;4.90;99.90
1221;DHT22;600;48.044;7.878;2022-12-10T15:22:35;4.90;99.90
1221;DHT22;600;48.044;7.878;2022-12-10T15:25:14;5.00;99.90
1221;DHT22;600;48.044;7.878;2022-12-10T15:27:52;5.00;99.90
1221;DHT22;600;48.044;7.878;2022-12-10T15:30:22;5.00;99.90
1221;DHT22;600;48.044;7.878;2022-12-10T15:32:52;5.10;99.90
1221;DHT22;600;48.044;7.878;2022-12-10T15:35:19;5.10;99.90
1221;DHT22;600;48.044;7.878;2022-12-10T15:37:47;5.10;99.90
1221;DHT22;600;48.044;7.878;2022-12-10T15:40:23;5.10;99.90
1221;DHT22;600;48.044;7.878;2022-12-10T15:42:50;5.10;99.90
1221;DHT22;600;48.044;7.878;2022-12-10T15:45:21;5.10;99.90
1221;DHT22;600;48.044;7.878;2022-12-10T15:47:50;5.10;99.90
1221;DHT22;600;48.044;7.878;2022-12-10T15:50:17;5.10;99.90
1221;DHT22;600;48.044;7.878;2022-12-10T15:52:44;5.10;99.90
1221;DHT22;600;48.044;7.878;2022-12-10T15:55:12;5.10;99.90
1221;DHT22;600;48.044;7.878;2022-12-10T15:57:40;5.10;99.90
1221;DHT22;600;48.044;7.878;2022-12-10T16:00:16;5.10;99.90
1221;DHT22;600;48.044;7.878;2022-12-10T16:02:46;5.20;99.90
1221;DHT22;600;48.044;7.878;2022-12-10T16:05:17;5.20;99.90
1221;DHT22;600;48.044;7.878;2022-12-10T16:07:47;5.10;99.90
1221;DHT22;600;48.044;7.878;2022-12-10T16:10:16;5.10;99.90
1221;DHT22;600;48.044;7.878;2022-12-10T16:12:44;5.10;99.90
1221;DHT22;600;48.044;7.878;2022-12-10T16:15:17;5.00;99.90
1221;DHT22;600;48.044;7.878;2022-12-10T16:17:44;5.00;99.90
1221;DHT22;600;48.044;7.878;2022-12-10T16:20:19;5.00;99.90
1221;DHT22;600;48.044;7.878;2022-12-10T16:22:47;4.90;99.90
1221;DHT22;600;48.044;7.878;2022-12-10T16:25:14;4.90;99.90
1221;DHT22;600;48.044;7.878;2022-12-10T16:27:41;4.80;99.90
1221;DHT22;600;48.044;7.878;2022-12-10T16:30:16;4.80;99.90
1221;DHT22;600;48.044;7.878;2022-12-10T16:32:44;4.80;99.90
1221;DHT22;600;48.044;7.878;2022-12-10T16:35:10;4.70;99.90
1221;DHT22;600;48.044;7.878;2022-12-10T16:37:41;4.70;99.90
1221;DHT22;600;48.044;7.878;2022-12-10T16:40:09;4.70;99.90
1221;DHT22;600;48.044;7.878;2022-12-10T16:42:36;4.70;99.90
1221;DHT22;600;48.044;7.878;2022-12-10T16:45:14;4.70;99.90
1221;DHT22;600;48.044;7.878;2022-12-10T16:47:41;4.70;99.90
1221;DHT22;600;48.044;7.878;2022-12-10T16:50:08;4.70;99.90
1221;DHT22;600;48.044;7.878;2022-12-10T16:52:36;4.70;99.90
1221;DHT22;600;48.044;7.878;2022-12-10T16:55:07;4.70;99.90
1221;DHT22;600;48.044;7.878;2022-12-10T16:57:34;4.70;99.90
1221;DHT22;600;48.044;7.878;2022-12-10T17:00:00;4.70;99.90
1221;DHT22;600;48.044;7.878;2022-12-10T17:02:27;4.70;99.90
1221;DHT22;600;48.044;7.878;2022-12-10T17:04:54;4.70;99.90
1221;DHT22;600;48.044;7.878;2022-12-10T17:07:21;4.70;99.90
1221;DHT22;600;48.044;7.878;2022-12-10T17:09:48;4.70;99.90
1221;DHT22;600;48.044;7.878;2022-12-10T17:12:16;4.70;99.90
1221;DHT22;600;48.044;7.878;2022-12-10T17:14:44;4.70;99.90
1221;DHT22;600;48.044;7.878;2022-12-10T17:17:13;4.70;99.90
1221;DHT22;600;48.044;7.878;2022-12-10T17:19:41;4.60;99.90
1221;DHT22;600;48.044;7.878;2022-12-10T17:22:10;4.60;99.90
1221;DHT22;600;48.044;7.878;2022-12-10T17:24:38;4.60;99.90
1221;DHT22;600;48.044;7.878;2022-12-10T17:27:07;4.60;99.90
1221;DHT22;600;48.044;7.878;2022-12-10T17:29:41;4.60;99.90
1221;DHT22;600;48.044;7.878;2022-12-10T17:32:12;4.60;99.90
1221;DHT22;600;48.044;7.878;2022-12-10T17:34:39;4.60;99.90
1221;DHT22;600;48.044;7.878;2022-12-10T17:37:09;4.60;99.90
1221;DHT22;600;48.044;7.878;2022-12-10T17:39:36;4.60;99.90
1221;DHT22;600;48.044;7.878;2022-12-10T17:42:03;4.50;99.90
1221;DHT22;600;48.044;7.878;2022-12-10T17:44:31;4.50;99.90
1221;DHT22;600;48.044;7.878;2022-12-10T17:46:59;4.50;99.90
1221;DHT22;600;48.044;7.878;2022-12-10T17:49:27;4.50;99.90
1221;DHT22;600;48.044;7.878;2022-12-10T17:51:53;4.50;99.90
1221;DHT22;600;48.044;7.878;2022-12-10T17:54:24;4.50;99.90
1221;DHT22;600;48.044;7.878;2022-12-10T17:56:51;4.50;99.90
1221;DHT22;600;48.044;7.878;2022-12-10T17:59:17;4.50;99.90
1221;DHT22;600;48.044;7.878;2022-12-10T18:01:44;4.50;99.90
1221;DHT22;600;48.044;7.878;2022-12-10T18:04:12;4.50;99.90
1221;DHT22;600;48.044;7.878;2022-12-10T18:06:39;4.60;99.90
1221;DHT22;600;48.044;7.878;2022-12-10T18:09:08;4.50;99.90
1221;DHT22;600;48.044;7.878;2022-12-10T18:11:36;4.60;99.90
1221;DHT22;600;48.044;7.878;2022-12-10T18:14:03;4.50;99.90
1221;DHT22;600;48.044;7.878;2022-12-10T18:16:31;4.50;99.90
1221;DHT22;600;48.044;7.878;2022-12-10T18:19:00;4.50;99.90
1221;DHT22;600;48.044;7.878;2022-12-10T18:21:28;4.50;99.90
1221;DHT22;600;48.044;7.878;2022-12-10T18:23:55;4.50;99.90
1221;DHT22;600;48.044;7.878;2022-12-10T18:26:24;4.50;99.90
1221;DHT22;600;48.044;7.878;2022-12-10T18:28:53;4.50;99.90
1221;DHT22;600;48.044;7.878;2022-12-10T18:31:22;4.60;99.90
1221;DHT22;600;48.044;7.878;2022-12-10T18:33:53;4.50;99.90
1221;DHT22;600;48.044;7.878;2022-12-10T18:36:22;4.60;99.90
1221;DHT22;600;48.044;7.878;2022-12-10T18:38:51;4.50;99.90
1221;DHT22;600;48.044;7.878;2022-12-10T18:41:19;4.50;99.90
1221;DHT22;600;48.044;7.878;2022-12-10T18:43:46;4.50;99.90
1221;DHT22;600;48.044;7.878;2022-12-10T18:46:15;4.50;99.90
1221;DHT22;600;48.044;7.878;2022-12-10T18:48:42;4.50;99.90
1221;DHT22;600;48.044;7.878;2022-12-10T18:51:11;4.60;99.90
1221;DHT22;600;48.044;7.878;2022-12-10T18:53:39;4.60;99.90
1221;DHT22;600;48.044;7.878;2022-12-10T18:56:10;4.60;99.90
1221;DHT22;600;48.044;7.878;2022-12-10T18:58:37;4.60;99.90
1221;DHT22;600;48.044;7.878;2022-12-10T19:01:04;4.70;99.90
1221;DHT22;600;48.044;7.878;2022-12-10T19:03:32;4.60;99.90
1221;DHT22;600;48.044;7.878;2022-12-10T19:05:59;4.60;99.90
1221;DHT22;600;48.044;7.878;2022-12-10T19:08:26;4.60;99.90
1221;DHT22;600;48.044;7.878;2022-12-10T19:10:54;4.60;99.90
1221;DHT22;600;48.044;7.878;2022-12-10T19:13:22;4.60;99.90
1221;DHT22;600;48.044;7.878;2022-12-10T19:15:49;4.60;99.90
1221;DHT22;600;48.044;7.878;2022-12-10T19:18:17;4.60;99.90
1221;DHT22;600;48.044;7.878;2022-12-10T19:20:44;4.60;99.90
1221;DHT22;600;48.044;7.878;2022-12-10T19:23:10;4.50;99.90
1221;DHT22;600;48.044;7.878;2022-12-10T19:25:38;4.50;99.90
1221;DHT22;600;48.044;7.878;2022-12-10T19:28:05;4.50;99.90
1221;DHT22;600;48.044;7.878;2022-12-10T19:30:33;4.50;99.90
1221;DHT22;600;48.044;7.878;2022-12-10T19:33:00;4.40;99.90
1221;DHT22;600;48.044;7.878;2022-12-10T19:35:27;4.40;99.90
1221;DHT22;600;48.044;7.878;2022-12-10T19:37:55;4.30;99.90
1221;DHT22;600;48.044;7.878;2022-12-10T19:40:24;4.30;99.90
1221;DHT22;600;48.044;7.878;2022-12-10T19:42:51;4.30;99.90
1221;DHT22;600;48.044;7.878;2022-12-10T19:45:19;4.20;99.90
1221;DHT22;600;48.044;7.878;2022-12-10T19:47:48;4.20;99.90
1221;DHT22;600;48.044;7.878;2022-12-10T19:50:20;4.20;99.90
1221;DHT22;600;48.044;7.878;2022-12-10T19:52:47;4.10;99.90
1221;DHT22;600;48.044;7.878;2022-12-10T19:55:16;4.10;99.90
1221;DHT22;600;48.044;7.878;2022-12-10T19:57:43;4.10;99.90
1221;DHT22;600;48.044;7.878;2022-12-10T20:00:15;4.10;99.90
1221;DHT22;600;48.044;7.878;2022-12-10T20:02:42;4.10;99.90
1221;DHT22;600;48.044;7.878;2022-12-10T20:05:11;4.10;99.90
1221;DHT22;600;48.044;7.878;2022-12-10T20:07:38;4.00;99.90
1221;DHT22;600;48.044;7.878;2022-12-10T20:10:06;4.00;99.90
1221;DHT22;600;48.044;7.878;2022-12-10T20:12:33;4.00;99.90
1221;DHT22;600;48.044;7.878;2022-12-10T20:15:01;4.00;99.90
1221;DHT22;600;48.044;7.878;2022-12-10T20:19:44;4.00;99.90
1221;DHT22;600;48.044;7.878;2022-12-10T20:22:11;4.00;99.90
1221;DHT22;600;48.044;7.878;2022-12-10T20:24:37;3.90;99.90
1221;DHT22;600;48.044;7.878;2022-12-10T20:27:04;3.90;99.90
1221;DHT22;600;48.044;7.878;2022-12-10T20:29:31;3.90;99.90
1221;DHT22;600;48.044;7.878;2022-12-10T20:31:58;3.90;99.90
1221;DHT22;600;48.044;7.878;2022-12-10T20:34:25;3.90;99.90
1221;DHT22;600;48.044;7.878;2022-12-10T20:36:53;3.80;99.90
1221;DHT22;600;48.044;7.878;2022-12-10T20:39:22;3.90;99.90
1221;DHT22;600;48.044;7.878;2022-12-10T20:41:50;3.90;99.90
1221;DHT22;600;48.044;7.878;2022-12-10T20:44:18;3.80;99.90
1221;DHT22;600;48.044;7.878;2022-12-10T20:46:45;3.90;99.90
1221;DHT22;600;48.044;7.878;2022-12-10T20:49:13;3.90;99.90
1221;DHT22;600;48.044;7.878;2022-12-10T20:51:41;3.80;99.90
1221;DHT22;600;48.044;7.878;2022-12-10T20:54:09;3.90;99.90
1221;DHT22;600;48.044;7.878;2022-12-10T20:56:37;3.90;99.90
1221;DHT22;600;48.044;7.878;2022-12-10T20:59:04;3.90;99.90
1221;DHT22;600;48.044;7.878;2022-12-10T21:01:31;3.90;99.90
1221;DHT22;600;48.044;7.878;2022-12-10T21:03:58;3.90;99.90
1221;DHT22;600;48.044;7.878;2022-12-10T21:06:28;3.90;99.90
1221;DHT22;600;48.044;7.878;2022-12-10T21:08:57;4.00;99.90
1221;DHT22;600;48.044;7.878;2022-12-10T21:11:25;3.90;99.90
1221;DHT22;600;48.044;7.878;2022-12-10T21:13:52;3.90;99.90
1221;DHT22;600;48.044;7.878;2022-12-10T21:16:21;3.90;99.90
1221;DHT22;600;48.044;7.878;2022-12-10T21:18:50;3.90;99.90
1221;DHT22;600;48.044;7.878;2022-12-10T21:21:19;3.90;99.90
1221;DHT22;600;48.044;7.878;2022-12-10T21:23:46;3.90;99.90
1221;DHT22;600;48.044;7.878;2022-12-10T21:26:13;3.90;99.90
1221;DHT22;600;48.044;7.878;2022-12-10T21:28:42;3.90;99.90
1221;DHT22;600;48.044;7.878;2022-12-10T21:31:15;3.90;99.90
1221;DHT22;600;48.044;7.878;2022-12-10T21:33:42;3.90;99.90
1221;DHT22;600;48.044;7.878;2022-12-10T21:36:10;3.90;99.90
1221;DHT22;600;48.044;7.878;2022-12-10T21:38:37;3.90;99.90
1221;DHT22;600;48.044;7.878;2022-12-10T21:41:05;3.80;99.90
1221;DHT22;600;48.044;7.878;2022-12-10T21:43:55;3.80;99.90
1221;DHT22;600;48.044;7.878;2022-12-10T21:46:21;3.80;99.90
1221;DHT22;600;48.044;7.878;2022-12-10T21:48:48;3.70;99.90
1221;DHT22;600;48.044;7.878;2022-12-10T21:51:16;3.70;99.90
1221;DHT22;600;48.044;7.878;2022-12-10T21:53:43;3.70;99.90
1221;DHT22;600;48.044;7.878;2022-12-10T21:56:11;3.60;99.90
1221;DHT22;600;48.044;7.878;2022-12-10T21:58:38;3.50;99.90
1221;DHT22;600;48.044;7.878;2022-12-10T22:01:07;3.50;99.90
1221;DHT22;600;48.044;7.878;2022-12-10T22:03:38;3.50;99.90
1221;DHT22;600;48.044;7.878;2022-12-10T22:06:06;3.50;99.90
1221;DHT22;600;48.044;7.878;2022-12-10T22:08:33;3.50;99.90
1221;DHT22;600;48.044;7.878;2022-12-10T22:11:00;3.40;99.90
1221;DHT22;600;48.044;7.878;2022-12-10T22:13:26;3.40;99.90
1221;DHT22;600;48.044;7.878;2022-12-10T22:15:53;3.40;99.90
1221;DHT22;600;48.044;7.878;2022-12-10T22:18:21;3.40;99.90
1221;DHT22;600;48.044;7.878;2022-12-10T22:20:55;3.50;99.90
1221;DHT22;600;48.044;7.878;2022-12-10T22:23:22;3.40;99.90
1221;DHT22;600;48.044;7.878;2022-12-10T22:25:49;3.40;99.90
1221;DHT22;600;48.044;7.878;2022-12-10T22:28:16;3.30;99.90
1221;DHT22;600;48.044;7.878;2022-12-10T22:30:43;3.30;99.90
1221;DHT22;600;48.044;7.878;2022-12-10T22:33:10;3.30;99.90
1221;DHT22;600;48.044;7.878;2022-12-10T22:35:39;3.30;99.90
1221;DHT22;600;48.044;7.878;2022-12-10T22:38:06;3.40;99.90
1221;DHT22;600;48.044;7.878;2022-12-10T22:40:33;3.40;99.90
1221;DHT22;600;48.044;7.878;2022-12-10T22:43:00;3.40;99.90
1221;DHT22;600;48.044;7.878;2022-12-10T22:45:27;3.50;99.90
1221;DHT22;600;48.044;7.878;2022-12-10T22:47:53;3.50;99.90
1221;DHT22;600;48.044;7.878;2022-12-10T22:50:20;3.60;99.90
1221;DHT22;600;48.044;7.878;2022-12-10T22:52:48;3.60;99.90
1221;DHT22;600;48.044;7.878;2022-12-10T22:55:15;3.60;99.90
1221;DHT22;600;48.044;7.878;2022-12-10T22:57:42;3.60;99.90
1221;DHT22;600;48.044;7.878;2022-12-10T23:00:12;3.60;99.90
1221;DHT22;600;48.044;7.878;2022-12-10T23:02:41;3.60;99.90
1221;DHT22;600;48.044;7.878;2022-12-10T23:05:08;3.60;99.90
1221;DHT22;600;48.044;7.878;2022-12-10T23:07:35;3.60;99.90
1221;DHT22;600;48.044;7.878;2022-12-10T23:10:04;3.60;99.90
1221;DHT22;600;48.044;7.878;2022-12-10T23:12:31;3.60;99.90
1221;DHT22;600;48.044;7.878;2022-12-10T23:15:16;3.60;99.90
1221;DHT22;600;48.044;7.878;2022-12-10T23:17:43;3.60;99.90
1221;DHT22;600;48.044;7.878;2022-12-10T23:20:09;3.60;99.90
1221;DHT22;600;48.044;7.878;2022-12-10T23:22:36;3.60;99.90
1221;DHT22;600;48.044;7.878;2022-12-10T23:25:05;3.60;99.90
1221;DHT22;600;48.044;7.878;2022-12-10T23:27:32;3.60;99.90
1221;DHT22;600;48.044;7.878;2022-12-10T23:29:58;3.60;99.90
1221;DHT22;600;48.044;7.878;2022-12-10T23:32:25;3.60;99.90
1221;DHT22;600;48.044;7.878;2022-12-10T23:34:52;3.70;99.90
1221;DHT22;600;48.044;7.878;2022-12-10T23:37:19;3.70;99.90
1221;DHT22;600;48.044;7.878;2022-12-10T23:39:46;3.70;99.90
1221;DHT22;600;48.044;7.878;2022-12-10T23:42:14;3.70;99.90
1221;DHT22;600;48.044;7.878;2022-12-10T23:44:40;3.70;99.90
1221;DHT22;600;48.044;7.878;2022-12-10T23:47:07;3.70;99.90
1221;DHT22;600;48.044;7.878;2022-12-10T23:49:34;3.70;99.90
1221;DHT22;600;48.044;7.878;2022-12-10T23:52:01;3.70;99.90
1221;DHT22;600;48.044;7.878;2022-12-10T23:54:27;3.70;99.90
1221;DHT22;600;48.044;7.878;2022-12-10T23:56:54;3.70;99.90
1221;DHT22;600;48.044;7.878;2022-12-10T23:59:22;3.70;99.90
